createdAt,value
2019-03-17T00:02:13.409Z,5.7
2019-03-17T00:07:18.949Z,5.3
2019-03-17T00:12:24.085Z,6.8
2019-03-17T00:17:29.957Z,5.4
2019-03-17T00:22:35.121Z,5.4
2019-03-17T00:27:40.650Z,5.2
2019-03-17T00:32:45.872Z,5.2
2019-03-17T00:37:51.518Z,4.8
2019-03-17T00:42:56.575Z,4.9
2019-03-17T00:47:56.837Z,5.2
2019-03-17T00:53:01.948Z,4.8
2019-03-17T00:58:07.303Z,4.5
2019-03-17T01:03:12.584Z,4.9
2019-03-17T01:08:17.858Z,5.6
2019-03-17T01:13:22.915Z,5
2019-03-17T01:18:26.888Z,4.8
2019-03-17T01:23:31.977Z,4.8
2019-03-17T01:28:37.085Z,4.8
2019-03-17T01:33:42.273Z,5
2019-03-17T01:38:47.757Z,4.8
2019-03-17T01:43:52.980Z,5.1
2019-03-17T01:48:58.158Z,5.1
2019-03-17T01:54:03.328Z,5.4
2019-03-17T01:59:08.449Z,5.4
2019-03-17T02:04:13.766Z,5.3
2019-03-17T02:09:18.871Z,5.7
2019-03-17T02:14:24.026Z,5.8
2019-03-17T02:19:29.393Z,6
2019-03-17T02:24:34.657Z,6.4
2019-03-17T02:29:40.119Z,6.4
2019-03-17T02:34:43.775Z,6.2
2019-03-17T02:39:49.190Z,6.4
2019-03-17T02:44:54.470Z,6.1
2019-03-17T02:49:59.851Z,6.6
2019-03-17T02:55:05.057Z,6.8
2019-03-17T03:00:10.381Z,6.9
2019-03-17T03:05:15.577Z,6.6
2019-03-17T03:10:20.817Z,7
2019-03-17T03:15:26.064Z,7.1
2019-03-17T03:20:31.543Z,7
2019-03-17T03:25:36.856Z,7.4
2019-03-17T03:30:42.123Z,7.3
2019-03-17T03:35:45.991Z,7.3
2019-03-17T03:40:51.543Z,7.5
2019-03-17T03:45:56.653Z,8
2019-03-17T03:51:01.814Z,7.8
2019-03-17T03:56:06.967Z,8
2019-03-17T04:01:12.206Z,7.9
2019-03-17T04:06:27.463Z,8.4
2019-03-17T04:11:23.038Z,7.9
2019-03-17T04:16:28.154Z,7.9
2019-03-17T04:21:33.696Z,8
2019-03-17T04:26:39.030Z,8.1
2019-03-17T04:31:44.371Z,8.1
2019-03-17T04:36:49.534Z,8.5
2019-03-17T04:41:55.326Z,8.5
2019-03-17T04:47:00.998Z,8.7
2019-03-17T04:52:06.159Z,8.5
2019-03-17T04:57:11.255Z,9.1
2019-03-17T05:02:14.917Z,8.8
2019-03-17T05:07:19.988Z,9.4
2019-03-17T05:12:25.367Z,11.2
2019-03-17T05:17:30.501Z,11.4
2019-03-17T05:22:35.613Z,10.5
2019-03-17T05:27:40.713Z,10
2019-03-17T05:32:46.068Z,10.2
2019-03-17T05:37:49.598Z,9.1
2019-03-17T05:42:55.169Z,8.7
2019-03-17T05:48:00.627Z,9.3
2019-03-17T05:53:06.092Z,8.4
2019-03-17T05:58:11.375Z,8.7
2019-03-17T06:03:16.545Z,9.4
2019-03-17T06:08:21.761Z,8.8
2019-03-17T06:13:27.127Z,8.2
2019-03-17T06:18:32.405Z,9
2019-03-17T06:23:37.682Z,8.8
2019-03-17T06:28:43.008Z,9.5
2019-03-17T06:33:46.834Z,8.8
2019-03-17T06:38:52.113Z,8.3
2019-03-17T06:43:58.068Z,7.8
2019-03-17T06:49:06.495Z,7.1
2019-03-17T06:54:11.938Z,6.6
2019-03-17T06:59:18.517Z,6.3
2019-03-17T07:04:23.956Z,6.2
2019-03-17T07:09:29.048Z,5.5
2019-03-17T07:14:34.225Z,5.3
2019-03-17T07:19:39.297Z,5.9
2019-03-17T07:24:42.937Z,5.5
2019-03-17T07:29:50.342Z,6.4
2019-03-17T07:34:55.862Z,4.9
2019-03-17T07:40:04.105Z,4.5
2019-03-17T07:45:09.475Z,5
2019-03-17T07:50:14.642Z,5
2019-03-17T07:55:19.884Z,4.4
2019-03-17T08:00:33.067Z,5.1
2019-03-17T08:05:27.624Z,4.4
2019-03-17T08:10:32.694Z,4.6
2019-03-17T08:15:38.074Z,4.1
2019-03-17T08:20:43.311Z,4.2
2019-03-17T08:25:48.502Z,4
2019-03-17T08:30:54.661Z,4.1
2019-03-17T08:36:00.184Z,4.2
2019-03-17T08:41:05.178Z,4.2
2019-03-17T08:46:10.526Z,4.1
2019-03-17T08:51:15.815Z,4.3
2019-03-17T08:56:21.196Z,4.5
2019-03-17T09:01:26.684Z,4.3
2019-03-17T09:06:32.231Z,4.7
2019-03-17T09:11:37.492Z,4.5
2019-03-17T09:16:42.811Z,4.7
2019-03-17T09:21:47.913Z,4.7
2019-03-17T09:26:53.326Z,4.5
2019-03-17T09:31:58.584Z,4.4
2019-03-17T09:37:03.959Z,4.1
2019-03-17T09:42:11.904Z,4.1
2019-03-17T09:47:17.301Z,4.1
2019-03-17T09:52:22.337Z,4.5
2019-03-17T09:57:27.653Z,4.3
2019-03-17T10:02:32.998Z,4.1
2019-03-17T10:07:38.078Z,3.9
2019-03-17T10:12:43.459Z,4
2019-03-17T10:17:48.738Z,3.9
2019-03-17T10:22:53.956Z,4.2
2019-03-17T10:27:59.159Z,4
2019-03-17T10:33:04.196Z,3.7
2019-03-17T10:38:09.509Z,3.5
2019-03-17T10:43:14.647Z,3.4
2019-03-17T10:48:18.596Z,4.9
2019-03-17T10:53:23.640Z,3.5
2019-03-17T10:58:28.951Z,3.6
2019-03-17T11:03:33.861Z,3.2
2019-03-17T11:08:39.141Z,3
2019-03-17T11:13:44.294Z,3.1
2019-03-17T11:18:49.533Z,3.2
2019-03-17T11:23:54.823Z,3.2
2019-03-17T11:29:00.490Z,3.2
2019-03-17T11:34:05.853Z,2.9
2019-03-17T11:39:11.191Z,2.8
2019-03-17T11:44:16.466Z,3.4
2019-03-17T11:49:21.908Z,3.7
2019-03-17T11:54:27.323Z,3
2019-03-17T11:59:32.656Z,3
2019-03-17T12:04:37.687Z,3.1
2019-03-17T12:09:51.079Z,2.9
2019-03-17T12:14:46.608Z,3.1
2019-03-17T12:19:52.066Z,3.7
2019-03-17T12:24:57.248Z,4.4
2019-03-17T12:30:01.289Z,4.5
2019-03-17T12:35:06.723Z,4.1
2019-03-17T12:40:12.776Z,4
2019-03-17T12:45:16.604Z,3.4
2019-03-17T12:50:22.024Z,3.7
2019-03-17T12:55:27.340Z,2.7
2019-03-17T13:00:32.732Z,3
2019-03-17T13:05:37.912Z,3.1
2019-03-17T13:10:43.861Z,2.9
2019-03-17T13:15:48.962Z,2.7
2019-03-17T13:20:54.212Z,3.1
2019-03-17T13:25:59.488Z,2.9
2019-03-17T13:31:05.295Z,2.7
2019-03-17T13:36:10.920Z,3.1
2019-03-17T13:41:16.445Z,3.1
2019-03-17T13:46:21.531Z,2.9
2019-03-17T13:51:27.545Z,2.7
2019-03-17T13:56:33.949Z,2.6
2019-03-17T14:01:39.270Z,2.9
2019-03-17T14:06:44.175Z,2.9
2019-03-17T14:11:49.396Z,2.7
2019-03-17T14:16:54.798Z,2.6
2019-03-17T14:21:58.596Z,2.6
2019-03-17T14:27:04.015Z,2.6
2019-03-17T14:32:09.803Z,2.7
2019-03-17T14:37:15.946Z,2.7
2019-03-17T14:42:21.235Z,2.6
2019-03-17T14:47:29.372Z,2.8
2019-03-17T14:52:49.000Z,2.5
2019-03-17T14:57:45.248Z,2.8
2019-03-17T15:02:50.177Z,2.6
2019-03-17T15:07:55.464Z,2.4
2019-03-17T15:13:03.377Z,2.5
2019-03-17T15:18:04.494Z,2.6
2019-03-17T15:23:09.844Z,2.3
2019-03-17T15:28:15.228Z,2.6
2019-03-17T15:33:20.625Z,3.6
2019-03-17T15:38:26.098Z,3.2
2019-03-17T15:43:31.571Z,3
2019-03-17T15:48:36.590Z,2.7
2019-03-17T15:53:42.029Z,2.7
2019-03-17T15:58:47.117Z,2.6
2019-03-17T16:03:52.861Z,2.9
2019-03-17T16:08:58.252Z,2.9
2019-03-17T16:14:03.821Z,3.1
2019-03-17T16:19:09.083Z,2.7
2019-03-17T16:24:12.844Z,2.7
2019-03-17T16:29:17.819Z,3.7
2019-03-17T16:34:21.701Z,2.8
2019-03-17T16:39:25.554Z,2.5
2019-03-17T16:44:31.248Z,2.8
2019-03-17T16:49:36.300Z,2.7
2019-03-17T16:54:41.874Z,2.8
2019-03-17T16:59:47.256Z,3.5
2019-03-17T17:04:52.753Z,3.8
2019-03-17T17:10:00.338Z,4.8
2019-03-17T17:14:59.178Z,6.4
2019-03-17T17:20:02.716Z,6.2
2019-03-17T17:25:07.859Z,6.1
2019-03-17T17:30:12.892Z,6.6
2019-03-17T17:35:17.756Z,6.2
2019-03-17T17:40:23.190Z,8.7
2019-03-17T17:45:28.385Z,8.7
2019-03-17T17:50:33.525Z,7.3
2019-03-17T17:55:46.447Z,6.9
2019-03-17T18:00:41.640Z,5.8
2019-03-17T18:05:46.583Z,5.7
2019-03-17T18:10:53.610Z,6.2
2019-03-17T18:15:59.957Z,5.8
2019-03-17T18:21:05.705Z,5.4
2019-03-17T18:26:11.046Z,8.6
2019-03-17T18:31:16.906Z,6.6
2019-03-17T18:36:22.591Z,6.7
2019-03-17T18:41:27.830Z,8.3
2019-03-17T18:46:33.453Z,8.9
2019-03-17T18:51:37.058Z,8
2019-03-17T18:56:41.214Z,6.7
2019-03-17T19:01:46.347Z,5.9
2019-03-17T19:06:51.880Z,5.7
2019-03-17T19:11:57.199Z,4.9
2019-03-17T19:17:05.682Z,5.5
2019-03-17T19:22:11.580Z,5
2019-03-17T19:27:16.756Z,5.1
2019-03-17T19:32:21.982Z,6.4
2019-03-17T19:37:27.869Z,6.3
2019-03-17T19:42:33.216Z,6.8
2019-03-17T19:47:38.640Z,7.1
2019-03-17T19:52:43.752Z,7.1
2019-03-17T19:57:49.277Z,7.4
2019-03-17T20:02:54.629Z,7.7
2019-03-17T20:08:00.021Z,7.9
2019-03-17T20:13:12.341Z,8.4
2019-03-17T20:18:08.064Z,8
2019-03-17T20:23:11.540Z,8.1
2019-03-17T20:28:16.887Z,7.7
2019-03-17T20:33:22.281Z,7.5
2019-03-17T20:38:27.696Z,6.6
2019-03-17T20:43:35.940Z,9.3
2019-03-17T20:48:41.268Z,7.9
2019-03-17T20:53:46.328Z,7.7
2019-03-17T20:58:51.888Z,7
2019-03-17T21:03:57.453Z,6.3
2019-03-17T21:09:02.705Z,5.9
2019-03-17T21:14:08.014Z,5.8
2019-03-17T21:19:13.534Z,6.1
2019-03-17T21:24:19.109Z,6
2019-03-17T21:29:24.371Z,6.1
2019-03-17T21:34:29.445Z,6
2019-03-17T21:39:37.424Z,5.4
2019-03-17T21:44:42.742Z,6.1
2019-03-17T21:49:47.953Z,5.6
2019-03-17T21:54:53.443Z,6.6
2019-03-17T21:59:58.909Z,6.5
2019-03-17T22:05:04.062Z,6.2
2019-03-17T22:10:09.291Z,6.2
2019-03-17T22:15:15.569Z,6.9
2019-03-17T22:20:20.782Z,6.4
2019-03-17T22:25:26.143Z,5.1
2019-03-17T22:30:26.213Z,7.1
2019-03-17T22:35:31.328Z,6.9
2019-03-17T22:40:35.110Z,5.8
2019-03-17T22:45:40.326Z,4.9
2019-03-17T22:50:45.446Z,5.2
2019-03-17T22:55:50.809Z,7.6
2019-03-17T23:00:56.257Z,4.5
2019-03-17T23:06:01.327Z,4.8
2019-03-17T23:11:06.424Z,4.6
2019-03-17T23:16:11.485Z,4.4
2019-03-17T23:21:16.704Z,4.5
2019-03-17T23:26:21.863Z,4.2
2019-03-17T23:31:25.706Z,4.8
2019-03-17T23:36:31.235Z,4.5
2019-03-17T23:41:36.760Z,4.4
2019-03-17T23:46:43.538Z,4.3
2019-03-17T23:51:49.034Z,4.5
2019-03-17T23:56:54.250Z,5.7
